Terminal Aerodrome Forecast
Issued by NWS Detroit/Pontiac, MI

Home | Current Version | Previous Version | Text Only | Print | Product List | Glossary On
Versions: 1 2 3 4 5 6 7 8 9 10 11 12 13 14 15 16 17 18 19 20 21 22 23 24 25 26 27 28 29 30
000
FTUS43 KDTX 042105 AAA
TAFDTW
TAF AMD
KDTW 042105Z 0421/0524 19013G23KT P6SM SCT080 BKN150
     FM042230 32010KT P6SM BKN060
     FM050200 04008KT P6SM BKN080 OVC200
     FM050800 06005KT P6SM OVC050 PROB30 0508/0512 3SM -SHRA OVC030
     FM051200 08007KT 6SM -SHRA OVC035=

USA.gov is the U.S. government's official web portal to all federal, state and local government web resources and services.